TimeMST,TemperatureF,Dew PointF,Humidity,Sea Level PressureIn,VisibilityMPH,Wind Direction,Wind SpeedMPH,Gust SpeedMPH,PrecipitationIn,Events,Conditions,WindDirDegrees,DateUTC
12:51 AM,46.0,26.1,46,30.04,10.0,North,3.5,-,N/A,,Clear,10,2012-11-05 07:51:00
1:51 AM,48.0,24.1,39,30.04,10.0,WNW,6.9,-,N/A,,Clear,300,2012-11-05 08:51:00
2:51 AM,54.0,19.0,25,30.03,10.0,NNW,11.5,-,N/A,,Clear,330,2012-11-05 09:51:00
3:51 AM,53.1,17.1,24,30.04,10.0,NNW,11.5,-,N/A,,Clear,330,2012-11-05 10:51:00
4:51 AM,53.1,21.9,30,30.08,10.0,North,15.0,-,N/A,,Clear,350,2012-11-05 11:51:00
5:51 AM,52.0,24.1,34,30.13,10.0,NNW,8.1,-,N/A,,Clear,330,2012-11-05 12:51:00
6:51 AM,53.1,24.1,32,30.17,10.0,NNW,11.5,-,N/A,,Clear,330,2012-11-05 13:51:00
7:51 AM,57.0,24.1,28,30.20,10.0,NNW,12.7,-,N/A,,Clear,340,2012-11-05 14:51:00
8:51 AM,60.1,25.0,26,30.21,10.0,North,15.0,-,N/A,,Clear,360,2012-11-05 15:51:00
9:51 AM,63.0,26.1,25,30.20,10.0,North,9.2,-,N/A,,Clear,350,2012-11-05 16:51:00
10:51 AM,64.9,27.0,24,30.18,10.0,North,9.2,-,N/A,,Clear,10,2012-11-05 17:51:00
11:51 AM,66.9,27.0,22,30.15,10.0,NNE,9.2,-,N/A,,Clear,30,2012-11-05 18:51:00
12:51 PM,68.0,28.0,22,30.12,10.0,North,5.8,-,N/A,,Clear,360,2012-11-05 19:51:00
1:51 PM,70.0,28.0,21,30.08,10.0,ENE,5.8,-,N/A,,Clear,60,2012-11-05 20:51:00
2:51 PM,71.1,27.0,19,30.05,10.0,Calm,Calm,-,N/A,,Clear,0,2012-11-05 21:51:00
3:51 PM,70.0,26.1,19,30.04,10.0,SSW,4.6,-,N/A,,Clear,200,2012-11-05 22:51:00
4:51 PM,64.9,25.0,22,30.05,10.0,South,5.8,-,N/A,,Clear,190,2012-11-05 23:51:00
5:51 PM,57.9,23.0,26,30.09,10.0,SSW,4.6,-,N/A,,Clear,200,2012-11-06 00:51:00
6:51 PM,54.0,23.0,30,30.08,10.0,SW,8.1,-,N/A,,Clear,220,2012-11-06 01:51:00
7:51 PM,52.0,24.1,34,30.08,10.0,WSW,6.9,-,N/A,,Clear,240,2012-11-06 02:51:00
8:51 PM,50.0,24.1,36,30.08,10.0,SW,6.9,-,N/A,,Clear,230,2012-11-06 03:51:00
9:51 PM,52.0,25.0,35,30.07,10.0,West,6.9,-,N/A,,Clear,260,2012-11-06 04:51:00
10:51 PM,46.9,27.0,46,30.08,10.0,Calm,Calm,-,N/A,,Clear,0,2012-11-06 05:51:00
11:51 PM,44.1,23.0,43,30.07,10.0,SSW,3.5,-,N/A,,Clear,200,2012-11-06 06:51:00